createdAt,value
2023-05-20T00:01:08.102Z,100212.34
2023-05-20T00:03:35.022Z,100209.88
2023-05-20T00:06:02.192Z,100209.66
2023-05-20T00:08:28.974Z,100209.09
2023-05-20T00:10:55.793Z,100201.84
2023-05-20T00:13:24.299Z,100195.63
2023-05-20T00:15:52.241Z,100201.44
2023-05-20T00:18:19.239Z,100193.34
2023-05-20T00:20:46.143Z,100202.25
2023-05-20T00:23:13.498Z,100197.72
2023-05-20T00:25:40.440Z,100197.31
2023-05-20T00:28:07.201Z,100195.22
2023-05-20T00:30:34.404Z,100200.63
2023-05-20T00:33:01.501Z,100202.47
2023-05-20T00:35:28.438Z,100203.09
2023-05-20T00:37:55.286Z,100197.28
2023-05-20T00:40:23.637Z,100197.50
2023-05-20T00:42:51.100Z,100202.91
2023-05-20T00:45:17.959Z,100204.13
2023-05-20T00:47:44.855Z,100204.97
2023-05-20T00:50:11.937Z,100207.44
2023-05-20T00:52:39.648Z,100201.66
2023-05-20T00:55:07.101Z,100201.25
2023-05-20T00:57:33.864Z,100206.63
2023-05-20T01:00:00.867Z,100208.06
2023-05-20T01:02:27.775Z,100196.47
2023-05-20T01:04:56.773Z,100203.31
2023-05-20T01:07:23.823Z,100204.97
2023-05-20T01:09:52.582Z,100205.78
2023-05-20T01:12:38.463Z,100204.13
2023-05-20T01:15:06.021Z,100206.59
2023-05-20T01:17:38.116Z,100206.22
2023-05-20T01:20:10.017Z,100198.34
2023-05-20T01:22:37.975Z,100192.53
2023-05-20T01:25:05.468Z,100198.53
2023-05-20T01:27:32.376Z,100202.47
2023-05-20T01:29:59.786Z,100199.56
2023-05-20T01:32:28.256Z,100199.16
2023-05-20T01:34:55.146Z,100208.91
2023-05-20T01:37:22.021Z,100206.00
2023-05-20T01:39:49.969Z,100209.13
2023-05-20T01:42:16.862Z,100199.16
2023-05-20T01:44:43.797Z,100211.56
2023-05-20T01:47:13.410Z,100208.69
2023-05-20T01:49:41.813Z,100215.94
2023-05-20T01:52:08.674Z,100215.53
2023-05-20T01:54:36.029Z,100211.59
2023-05-20T01:57:03.214Z,100215.31
2023-05-20T01:59:30.440Z,100212.00
2023-05-20T02:01:57.398Z,100211.81
2023-05-20T02:04:24.983Z,100207.44
2023-05-20T02:06:51.805Z,100209.72
2023-05-20T02:09:18.750Z,100208.69
2023-05-20T02:11:45.663Z,100214.91
2023-05-20T02:14:12.628Z,100213.25
2023-05-20T02:16:39.445Z,100212.81
2023-05-20T02:19:06.784Z,100208.06
2023-05-20T02:21:35.393Z,100209.72
2023-05-20T02:24:02.201Z,100210.34
2023-05-20T02:26:29.041Z,100212.00
2023-05-20T02:28:55.829Z,100208.28
2023-05-20T02:31:23.023Z,100207.66
2023-05-20T02:33:49.827Z,100209.53
2023-05-20T02:36:17.392Z,100209.91
2023-05-20T02:38:44.840Z,100213.47
2023-05-20T02:41:11.726Z,100209.91
2023-05-20T02:43:40.770Z,100208.06
2023-05-20T02:46:07.615Z,100209.53
2023-05-20T02:48:34.530Z,100212.84
2023-05-20T02:51:01.318Z,100219.06
2023-05-20T02:53:28.056Z,100216.97
2023-05-20T02:55:54.966Z,100213.03
2023-05-20T02:58:26.425Z,100216.97
2023-05-20T03:00:53.773Z,100216.56
2023-05-20T03:03:20.728Z,100217.00
2023-05-20T03:05:47.453Z,100205.38
2023-05-20T03:08:15.119Z,100216.56
2023-05-20T03:10:42.162Z,100219.88
2023-05-20T03:13:10.110Z,100214.91
2023-05-20T03:15:38.152Z,100225.28
2023-05-20T03:18:05.684Z,100222.38
2023-05-20T03:20:38.608Z,100223.19
2023-05-20T03:23:07.570Z,100224.84
2023-05-20T03:25:36.796Z,100218.16
2023-05-20T03:28:04.010Z,100220.69
2023-05-20T03:30:31.438Z,100216.13
2023-05-20T03:32:58.715Z,100228.75
2023-05-20T03:35:26.195Z,100221.91
2023-05-20T03:37:53.548Z,100222.50
2023-05-20T03:40:23.908Z,100216.25
2023-05-20T03:42:52.253Z,100219.97
2023-05-20T03:45:20.936Z,100215.81
2023-05-20T03:48:05.788Z,100216.44
2023-05-20T03:50:34.499Z,100214.53
2023-05-20T03:53:01.811Z,100210.63
2023-05-20T03:55:35.096Z,100220.81
2023-05-20T03:58:03.077Z,100211.09
2023-05-20T04:00:32.021Z,100216.72
2023-05-20T04:02:59.262Z,100219.84
2023-05-20T04:05:27.098Z,100213.00
2023-05-20T04:07:55.180Z,100209.06
2023-05-20T04:10:23.797Z,100213.63
2023-05-20T04:12:52.612Z,100215.50
2023-05-20T04:15:20.520Z,100214.69
2023-05-20T04:17:54.968Z,100215.50
2023-05-20T04:20:22.083Z,100209.66
2023-05-20T04:22:50.827Z,100213.97
2023-05-20T04:25:17.908Z,100219.53
2023-05-20T04:27:44.751Z,100214.75
2023-05-20T04:30:12.009Z,100209.75
2023-05-20T04:32:41.850Z,100216.63
2023-05-20T04:35:12.095Z,100217.38
2023-05-20T04:37:42.659Z,100214.13
2023-05-20T04:40:13.134Z,100209.53
2023-05-20T04:42:40.111Z,100215.31
2023-05-20T04:45:08.966Z,100221.97
2023-05-20T04:47:38.978Z,100219.47
2023-05-20T04:50:13.782Z,100216.13
2023-05-20T04:52:46.136Z,100219.84
2023-05-20T04:55:13.429Z,100222.75
2023-05-20T04:57:42.952Z,100218.19
2023-05-20T05:00:10.921Z,100214.41
2023-05-20T05:02:37.988Z,100224.28
2023-05-20T05:05:05.249Z,100220.09
2023-05-20T05:07:32.722Z,100221.56
2023-05-20T05:09:59.723Z,100220.19
2023-05-20T05:12:33.168Z,100220.88
2023-05-20T05:15:00.181Z,100225.44
2023-05-20T05:17:29.230Z,100207.25
2023-05-20T05:19:57.522Z,100210.00
2023-05-20T05:22:26.263Z,100209.66
2023-05-20T05:24:53.281Z,100205.97
2023-05-20T05:27:21.172Z,100212.75
2023-05-20T05:29:48.051Z,100206.94
2023-05-20T05:32:15.021Z,100205.72
2023-05-20T05:34:42.537Z,100199.03
2023-05-20T05:37:09.401Z,100209.66
2023-05-20T05:39:37.878Z,100207.00
2023-05-20T05:42:05.680Z,100195.13
2023-05-20T05:44:34.230Z,100201.53
2023-05-20T05:47:02.376Z,100197.53
2023-05-20T05:49:29.212Z,100198.75
2023-05-20T05:51:56.358Z,100201.50
2023-05-20T05:54:24.276Z,100194.88
2023-05-20T05:56:52.077Z,100206.66
2023-05-20T05:59:19.048Z,100193.56
2023-05-20T06:01:46.426Z,100204.63
2023-05-20T06:04:14.933Z,100199.53
2023-05-20T06:06:41.851Z,100202.47
2023-05-20T06:09:08.858Z,100202.47
2023-05-20T06:11:36.557Z,100208.06
2023-05-20T06:14:03.415Z,100197.63
2023-05-20T06:16:30.375Z,100205.09
2023-05-20T06:19:01.834Z,100205.69
2023-05-20T06:21:31.811Z,100201.53
2023-05-20T06:23:59.127Z,100210.31
2023-05-20T06:26:26.662Z,100211.25
2023-05-20T06:28:53.665Z,100205.09
2023-05-20T06:31:20.744Z,100208.97
2023-05-20T06:33:48.259Z,100209.31
2023-05-20T06:36:15.618Z,100202.47
2023-05-20T06:38:42.485Z,100201.75
2023-05-20T06:41:13.871Z,100203.50
2023-05-20T06:43:43.723Z,100202.31
2023-05-20T06:46:51.884Z,100195.16
2023-05-20T06:49:20.145Z,100192.81
2023-05-20T06:51:47.272Z,100196.91
2023-05-20T06:54:14.156Z,100202.34
2023-05-20T06:56:42.093Z,100200.34
2023-05-20T06:59:08.932Z,100197.41
2023-05-20T07:01:36.473Z,100197.25
2023-05-20T07:04:05.704Z,100197.06
2023-05-20T07:06:33.462Z,100193.78
2023-05-20T07:09:03.452Z,100200.38
2023-05-20T07:11:30.750Z,100190.00
2023-05-20T07:13:57.709Z,100185.66
2023-05-20T07:16:28.157Z,100192.47
2023-05-20T07:18:55.899Z,100190.63
2023-05-20T07:21:26.040Z,100181.56
2023-05-20T07:24:23.613Z,100191.03
2023-05-20T07:26:50.874Z,100185.44
2023-05-20T07:29:17.901Z,100189.94
2023-05-20T07:31:45.059Z,100186.81
2023-05-20T07:34:13.507Z,100185.66
2023-05-20T07:36:41.928Z,100188.19
2023-05-20T07:39:12.551Z,100187.09
2023-05-20T07:41:42.326Z,100173.63
2023-05-20T07:44:11.460Z,100172.91
2023-05-20T07:46:44.667Z,100175.44
2023-05-20T07:49:12.258Z,100178.44
2023-05-20T07:51:40.003Z,100175.69
2023-05-20T07:54:06.902Z,100180.44
2023-05-20T07:56:33.716Z,100180.44
2023-05-20T07:59:01.467Z,100160.41
2023-05-20T08:01:32.392Z,100159.41
2023-05-20T08:04:00.058Z,100175.50
2023-05-20T08:06:29.375Z,100174.94
2023-05-20T08:08:57.547Z,100167.44
2023-05-20T08:11:33.225Z,100165.94
2023-05-20T08:14:02.260Z,100178.69
2023-05-20T08:16:33.472Z,100172.09
2023-05-20T08:19:00.654Z,100176.75
2023-05-20T08:21:27.662Z,100177.63
2023-05-20T08:23:54.866Z,100171.72
2023-05-20T08:26:22.178Z,100175.66
2023-05-20T08:28:53.077Z,100158.41
2023-05-20T08:31:22.517Z,100164.06
2023-05-20T08:33:50.971Z,100167.94
2023-05-20T08:36:21.200Z,100170.50
2023-05-20T08:38:48.955Z,100176.47
2023-05-20T08:41:15.994Z,100175.25
2023-05-20T08:43:45.174Z,100182.59
2023-05-20T08:46:12.256Z,100169.91
2023-05-20T08:48:39.601Z,100177.31
2023-05-20T08:51:06.591Z,100179.91
2023-05-20T08:53:33.536Z,100180.25
2023-05-20T08:56:03.210Z,100171.91
2023-05-20T08:58:31.005Z,100164.34
2023-05-20T09:00:59.090Z,100162.78
2023-05-20T09:03:25.964Z,100171.94
2023-05-20T09:05:53.265Z,100170.97
2023-05-20T09:08:20.470Z,100173.41
2023-05-20T09:10:47.281Z,100161.94
2023-05-20T09:13:14.101Z,100173.63
2023-05-20T09:15:41.567Z,100171.63
2023-05-20T09:18:09.313Z,100180.72
2023-05-20T09:20:41.228Z,100167.22
2023-05-20T09:23:10.301Z,100192.50
2023-05-20T09:25:37.525Z,100181.34
2023-05-20T09:28:08.007Z,100179.88
2023-05-20T09:30:34.890Z,100196.16
2023-05-20T09:33:04.470Z,100186.66
2023-05-20T09:35:35.017Z,100184.84
2023-05-20T09:38:02.182Z,100191.78
2023-05-20T09:40:29.426Z,100190.28
2023-05-20T09:43:08.975Z,100196.50
2023-05-20T09:45:37.021Z,100193.78
2023-05-20T09:48:04.255Z,100187.50
2023-05-20T09:50:31.568Z,100186.81
2023-05-20T09:53:01.032Z,100192.97
2023-05-20T09:55:27.922Z,100196.00
2023-05-20T09:57:56.453Z,100194.19
2023-05-20T10:00:23.449Z,100176.31
2023-05-20T10:02:51.737Z,100190.34
2023-05-20T10:05:22.073Z,100197.94
2023-05-20T10:08:07.369Z,100197.84
2023-05-20T10:10:38.002Z,100199.88
2023-05-20T10:13:23.537Z,100196.81
2023-05-20T10:15:56.854Z,100201.34
2023-05-20T10:18:40.896Z,100194.59
2023-05-20T10:21:17.398Z,100202.47
2023-05-20T10:23:44.543Z,100197.84
2023-05-20T10:26:11.676Z,100195.03
2023-05-20T10:28:38.779Z,100190.72
2023-05-20T10:31:23.421Z,100188.03
2023-05-20T10:33:52.666Z,100181.84
2023-05-20T10:36:24.576Z,100199.69
2023-05-20T10:39:09.570Z,100200.34
2023-05-20T10:41:37.549Z,100199.47
2023-05-20T10:44:05.354Z,100204.00
2023-05-20T10:46:48.302Z,100205.44
2023-05-20T10:49:26.947Z,100203.00
2023-05-20T10:51:54.445Z,100195.50
2023-05-20T10:54:22.086Z,100198.13
2023-05-20T10:56:52.608Z,100196.56
2023-05-20T10:59:21.945Z,100195.22
2023-05-20T11:01:48.966Z,100195.03
2023-05-20T11:04:17.434Z,100198.28
2023-05-20T11:06:51.544Z,100199.97
2023-05-20T11:09:18.445Z,100208.63
2023-05-20T11:11:45.251Z,100210.59
2023-05-20T11:14:15.360Z,100206.31
2023-05-20T11:16:42.401Z,100201.38
2023-05-20T11:19:09.680Z,100204.25
2023-05-20T11:21:42.904Z,100208.19
2023-05-20T11:24:09.701Z,100207.28
2023-05-20T11:26:37.121Z,100205.56
2023-05-20T11:29:04.033Z,100200.19
2023-05-20T11:31:32.084Z,100204.56
2023-05-20T11:34:02.517Z,100210.25
2023-05-20T11:36:30.551Z,100213.84
2023-05-20T11:38:58.080Z,100215.84
2023-05-20T11:41:25.742Z,100215.44
2023-05-20T11:43:57.160Z,100209.25
2023-05-20T11:46:24.529Z,100208.59
2023-05-20T11:48:54.902Z,100203.47
2023-05-20T11:51:28.048Z,100209.56
2023-05-20T11:54:04.387Z,100205.47
2023-05-20T11:56:35.056Z,100206.47
2023-05-20T11:59:02.212Z,100209.34
2023-05-20T12:01:41.279Z,100209.09
2023-05-20T12:04:08.549Z,100210.50
2023-05-20T12:06:37.217Z,100209.56
2023-05-20T12:09:08.912Z,100211.91
2023-05-20T12:11:36.251Z,100211.16
2023-05-20T12:14:04.121Z,100201.91
2023-05-20T12:16:31.861Z,100197.75
2023-05-20T12:18:58.807Z,100198.63
2023-05-20T12:21:25.677Z,100200.34
2023-05-20T12:23:57.807Z,100209.59
2023-05-20T12:26:26.020Z,100208.19
2023-05-20T12:28:53.116Z,100199.03
2023-05-20T12:31:20.186Z,100213.53
2023-05-20T12:33:47.243Z,100207.94
2023-05-20T12:36:14.235Z,100206.00
2023-05-20T12:38:41.577Z,100209.53
2023-05-20T12:41:08.375Z,100212.50
2023-05-20T12:43:36.918Z,100214.19
2023-05-20T12:46:04.330Z,100200.44
2023-05-20T12:48:31.443Z,100208.44
2023-05-20T12:50:58.364Z,100207.69
2023-05-20T12:53:25.554Z,100202.56
2023-05-20T12:55:52.402Z,100195.41
2023-05-20T12:58:19.280Z,100197.78
2023-05-20T13:01:04.460Z,100198.22
2023-05-20T13:03:31.521Z,100195.31
2023-05-20T13:06:03.485Z,100189.72
2023-05-20T13:08:30.329Z,100197.41
2023-05-20T13:10:57.085Z,100197.03
2023-05-20T13:13:24.507Z,100195.06
2023-05-20T13:15:51.872Z,100202.13
2023-05-20T13:18:19.601Z,100195.09
2023-05-20T13:20:46.551Z,100200.47
2023-05-20T13:23:13.426Z,100211.44
2023-05-20T13:25:40.652Z,100206.28
2023-05-20T13:28:08.470Z,100204.91
2023-05-20T13:30:35.797Z,100212.22
2023-05-20T13:33:02.739Z,100205.31
2023-05-20T13:35:29.561Z,100215.47
2023-05-20T13:37:56.493Z,100207.44
2023-05-20T13:40:23.323Z,100214.59
2023-05-20T13:43:15.742Z,100217.66
2023-05-20T13:45:42.823Z,100222.53
2023-05-20T13:48:09.641Z,100209.75
2023-05-20T13:50:37.068Z,100217.72
2023-05-20T13:53:03.837Z,100211.88
2023-05-20T13:55:31.696Z,100222.63
2023-05-20T13:57:58.501Z,100220.16
2023-05-20T14:00:26.045Z,100217.00
2023-05-20T14:02:56.297Z,100226.34
2023-05-20T14:05:23.391Z,100216.16
2023-05-20T14:07:50.277Z,100221.69
2023-05-20T14:10:17.210Z,100206.69
2023-05-20T14:12:48.108Z,100216.19
2023-05-20T14:15:15.035Z,100216.09
2023-05-20T14:17:42.878Z,100215.53
2023-05-20T14:20:10.126Z,100213.88
2023-05-20T14:22:37.008Z,100206.31
2023-05-20T14:25:04.007Z,100212.06
2023-05-20T14:27:30.826Z,100193.09
2023-05-20T14:29:57.796Z,100206.13
2023-05-20T14:32:24.625Z,100205.78
2023-05-20T14:34:51.926Z,100203.97
2023-05-20T14:37:18.679Z,100199.44
2023-05-20T14:39:46.071Z,100202.16
2023-05-20T14:42:12.906Z,100195.56
2023-05-20T14:44:39.791Z,100199.22
2023-05-20T14:47:06.809Z,100196.06
2023-05-20T14:49:33.827Z,100189.19
2023-05-20T14:52:00.703Z,100198.84
2023-05-20T14:54:27.849Z,100192.13
2023-05-20T14:56:54.671Z,100195.19
2023-05-20T14:59:21.527Z,100191.34
2023-05-20T15:01:48.473Z,100193.47
2023-05-20T15:04:15.384Z,100196.78
2023-05-20T15:06:42.124Z,100203.28
2023-05-20T15:09:09.130Z,100187.38
2023-05-20T15:11:36.284Z,100195.31
2023-05-20T15:14:03.341Z,100181.75
2023-05-20T15:16:30.287Z,100185.22
2023-05-20T15:18:57.338Z,100193.63
2023-05-20T15:21:24.186Z,100196.00
2023-05-20T15:23:51.047Z,100189.38
2023-05-20T15:26:17.903Z,100188.22
2023-05-20T15:28:44.842Z,100188.22
2023-05-20T15:31:11.645Z,100188.22
2023-05-20T15:33:38.658Z,100189.16
2023-05-20T15:36:07.379Z,100184.81
2023-05-20T15:38:34.477Z,100178.19
2023-05-20T15:41:01.362Z,100177.25
2023-05-20T15:43:28.280Z,100180.19
2023-05-20T15:45:55.076Z,100176.28
2023-05-20T15:48:22.675Z,100171.91
2023-05-20T15:50:49.561Z,100180.34
2023-05-20T15:53:16.391Z,100169.31
2023-05-20T15:55:44.819Z,100166.22
2023-05-20T15:58:12.040Z,100165.25
2023-05-20T16:00:39.067Z,100165.47
2023-05-20T16:03:06.286Z,100166.91
2023-05-20T16:05:33.504Z,100170.06
2023-05-20T16:08:00.726Z,100170.34
2023-05-20T16:10:32.848Z,100175.34
2023-05-20T16:13:00.571Z,100165.25
2023-05-20T16:15:27.618Z,100167.66
2023-05-20T16:17:54.780Z,100168.75
2023-05-20T16:20:21.807Z,100167.81
2023-05-20T16:22:49.012Z,100159.31
2023-05-20T16:25:15.973Z,100159.22
2023-05-20T16:27:42.923Z,100152.13
2023-05-20T16:30:10.169Z,100155.56
2023-05-20T16:32:37.144Z,100162.53
2023-05-20T16:35:05.051Z,100162.16
2023-05-20T16:37:32.517Z,100164.53
2023-05-20T16:39:59.297Z,100166.53
2023-05-20T16:42:26.160Z,100170.06
2023-05-20T16:44:53.658Z,100164.44
2023-05-20T16:47:20.754Z,100165.25
2023-05-20T16:49:47.520Z,100165.03
2023-05-20T16:52:14.938Z,100163.72
2023-05-20T16:54:42.117Z,100164.06
2023-05-20T16:57:11.479Z,100168.28
2023-05-20T16:59:38.366Z,100163.13
2023-05-20T17:02:05.680Z,100162.66
2023-05-20T17:04:32.497Z,100162.88
2023-05-20T17:07:01.838Z,100156.88
2023-05-20T17:09:31.684Z,100163.59
2023-05-20T17:11:58.892Z,100155.69
2023-05-20T17:14:25.669Z,100159.91
2023-05-20T17:16:52.632Z,100162.06
2023-05-20T17:19:19.529Z,100158.75
2023-05-20T17:21:46.437Z,100161.34
2023-05-20T17:24:13.247Z,100158.25
2023-05-20T17:26:40.136Z,100156.63
2023-05-20T17:29:06.936Z,100159.81
2023-05-20T17:31:34.062Z,100158.25
2023-05-20T17:34:00.921Z,100162.56
2023-05-20T17:36:27.834Z,100157.75
2023-05-20T17:38:54.744Z,100157.84
2023-05-20T17:41:22.097Z,100157.47
2023-05-20T17:43:48.895Z,100165.44
2023-05-20T17:46:15.750Z,100162.59
2023-05-20T17:48:42.762Z,100170.16
2023-05-20T17:51:09.662Z,100164.75
2023-05-20T17:53:36.856Z,100166.34
2023-05-20T17:56:03.992Z,100164.09
2023-05-20T17:58:31.614Z,100173.34
2023-05-20T18:00:58.749Z,100163.22
2023-05-20T18:03:26.103Z,100167.66
2023-05-20T18:05:56.138Z,100164.81
2023-05-20T18:08:25.423Z,100164.91
2023-05-20T18:10:52.595Z,100163.31
2023-05-20T18:13:19.409Z,100167.09
2023-05-20T18:15:47.161Z,100167.78
2023-05-20T18:18:14.032Z,100169.31
2023-05-20T18:20:41.196Z,100155.63
2023-05-20T18:23:08.085Z,100159.00
2023-05-20T18:25:34.877Z,100168.59
2023-05-20T18:28:01.836Z,100166.22
2023-05-20T18:30:28.872Z,100169.63
2023-05-20T18:32:57.147Z,100166.75
2023-05-20T18:35:24.028Z,100159.72
2023-05-20T18:37:51.753Z,100160.16
2023-05-20T18:40:20.702Z,100156.69
2023-05-20T18:42:47.591Z,100162.16
2023-05-20T18:45:14.587Z,100148.31
2023-05-20T18:47:41.862Z,100160.09
2023-05-20T18:50:09.273Z,100155.19
2023-05-20T18:52:36.196Z,100158.78
2023-05-20T18:55:03.006Z,100157.34
2023-05-20T18:57:31.804Z,100156.28
2023-05-20T18:59:59.135Z,100156.69
2023-05-20T19:02:26.006Z,100154.81
2023-05-20T19:04:52.857Z,100151.03
2023-05-20T19:07:20.034Z,100145.44
2023-05-20T19:09:46.928Z,100141.09
2023-05-20T19:12:13.699Z,100134.25
2023-05-20T19:14:41.122Z,100136.53
2023-05-20T19:17:08.092Z,100140.53
2023-05-20T19:19:35.065Z,100134.13
2023-05-20T19:22:02.167Z,100127.28
2023-05-20T19:24:32.063Z,100130.88
2023-05-20T19:26:59.017Z,100125.47
2023-05-20T19:29:25.946Z,100118.19
2023-05-20T19:31:52.909Z,100121.72
2023-05-20T19:34:20.890Z,100110.91
2023-05-20T19:36:47.994Z,100122.53
2023-05-20T19:39:15.689Z,100119.84
2023-05-20T19:41:42.795Z,100121.56
2023-05-20T19:44:09.717Z,100116.81
2023-05-20T19:46:36.918Z,100114.31
2023-05-20T19:49:03.946Z,100105.63
2023-05-20T19:51:32.417Z,100104.41
2023-05-20T19:53:59.838Z,100101.69
2023-05-20T19:56:26.804Z,100102.81
2023-05-20T19:58:53.714Z,100100.81
2023-05-20T20:01:20.689Z,100096.25
2023-05-20T20:03:47.663Z,100092.56
2023-05-20T20:06:17.731Z,100097.78
2023-05-20T20:08:45.956Z,100090.09
2023-05-20T20:11:13.015Z,100085.38
2023-05-20T20:13:40.225Z,100083.09
2023-05-20T20:16:07.718Z,100083.09
2023-05-20T20:18:34.650Z,100073.16
2023-05-20T20:21:05.670Z,100072.34
2023-05-20T20:23:32.983Z,100073.63
2023-05-20T20:25:59.867Z,100071.50
2023-05-20T20:28:26.703Z,100070.47
2023-05-20T20:30:53.724Z,100066.09
2023-05-20T20:33:20.543Z,100066.53
2023-05-20T20:35:48.340Z,100061.78
2023-05-20T20:38:15.260Z,100068.03
2023-05-20T20:40:42.680Z,100049.56
2023-05-20T20:43:11.211Z,100052.06
2023-05-20T20:45:38.256Z,100052.50
2023-05-20T20:48:08.050Z,100049.56
2023-05-20T20:50:36.711Z,100049.97
2023-05-20T20:53:03.582Z,100045.41
2023-05-20T20:55:34.651Z,100045.00
2023-05-20T20:58:03.588Z,100037.34
2023-05-20T21:00:31.920Z,100039.63
2023-05-20T21:02:58.752Z,100046.28
2023-05-20T21:05:26.788Z,100037.19
2023-05-20T21:07:58.493Z,100040.34
2023-05-20T21:10:31.988Z,100042.25
2023-05-20T21:12:59.229Z,100045.84
2023-05-20T21:15:26.366Z,100042.34
2023-05-20T21:17:56.408Z,100039.03
2023-05-20T21:20:25.847Z,100036.13
2023-05-20T21:22:52.849Z,100028.66
2023-05-20T21:25:19.792Z,100026.56
2023-05-20T21:27:46.871Z,100015.38
2023-05-20T21:30:15.961Z,100018.72
2023-05-20T21:32:42.927Z,100006.72
2023-05-20T21:35:09.910Z,100006.53
2023-05-20T21:37:36.789Z,100002.16
2023-05-20T21:40:03.818Z,99997.00
2023-05-20T21:42:30.945Z,100000.13
2023-05-20T21:44:57.707Z,99998.47
2023-05-20T21:47:24.484Z,99995.19
2023-05-20T21:49:51.960Z,99991.28
2023-05-20T21:52:18.751Z,99990.50
2023-05-20T21:54:45.731Z,99995.06
2023-05-20T21:57:12.561Z,99987.63
2023-05-20T21:59:39.572Z,99991.16
2023-05-20T22:02:06.516Z,99991.81
2023-05-20T22:04:34.082Z,99981.22
2023-05-20T22:07:00.932Z,99984.16
2023-05-20T22:09:28.751Z,99984.16
2023-05-20T22:11:56.312Z,99976.25
2023-05-20T22:14:23.812Z,99972.94
2023-05-20T22:16:50.815Z,99960.94
2023-05-20T22:19:17.816Z,99969.44
2023-05-20T22:24:14.812Z,99959.91
2023-05-20T22:26:41.823Z,99954.31
2023-05-20T22:29:08.746Z,99960.31
2023-05-20T22:31:35.839Z,99955.53
2023-05-20T22:34:04.596Z,99954.28
2023-05-20T22:36:34.241Z,99953.03
2023-05-20T22:39:04.955Z,99951.41
2023-05-20T22:41:32.195Z,99948.72
2023-05-20T22:43:59.037Z,99949.53
2023-05-20T22:46:26.245Z,99945.22
2023-05-20T22:48:53.216Z,99936.69
2023-05-20T22:51:24.738Z,99936.06
2023-05-20T22:53:52.129Z,99929.88
2023-05-20T22:56:19.156Z,99931.13
2023-05-20T22:58:46.027Z,99931.31
2023-05-20T23:01:13.420Z,99927.16
2023-05-20T23:03:40.218Z,99920.97
2023-05-20T23:06:06.996Z,99920.31
2023-05-20T23:08:33.834Z,99913.06
2023-05-20T23:11:00.779Z,99913.47
2023-05-20T23:13:28.116Z,99919.03
2023-05-20T23:15:54.995Z,99907.22
2023-05-20T23:18:22.189Z,99909.06
2023-05-20T23:20:49.151Z,99905.94
2023-05-20T23:23:16.562Z,99905.75
2023-05-20T23:25:45.830Z,99906.19
2023-05-20T23:28:12.833Z,99902.06
2023-05-20T23:30:44.903Z,99901.44
2023-05-20T23:33:13.104Z,99904.13
2023-05-20T23:35:39.941Z,99902.44
2023-05-20T23:38:07.799Z,99896.84
2023-05-20T23:40:34.647Z,99905.75
2023-05-20T23:43:01.646Z,99895.78
2023-05-20T23:45:28.917Z,99894.78
2023-05-20T23:47:55.780Z,99897.84
2023-05-20T23:50:22.708Z,99891.66
2023-05-20T23:52:49.616Z,99899.50
2023-05-20T23:55:18.416Z,99893.28
2023-05-20T23:57:45.170Z,99891.00
